Terminal Aerodrome Forecast
Issued by NWS

Home | Current Version | Previous Version | Text Only | Print | Product List | Glossary On
Versions: 1 2 3 4 5 6 7 8 9 10 11 12 13 14 15 16 17 18 19 20 21 22 23 24 25 26 27 28 29 30 31 32 33
000
FTUS45 KBOU 231120
TAFAPA
TAF
KAPA 231120Z 2312/2412 24012KT P6SM FEW140 SCT220
     FM231500 22015G25KT P6SM SCT220
     FM231800 23020G35KT P6SM FEW120 SCT220
     FM232300 25012G25KT P6SM FEW120 BKN150
     FM240300 01014G25KT P6SM VCSH SCT030 OVC060
     FM240500 35025G35KT 4SM -SHRASN SCT015 OVC030
     FM240700 35028G42KT 2SM -SHSNRA SCT008 OVC015
     FM241000 35030G45KT 1/2SM -SN BLSN SCT005 OVC008=

USA.gov is the U.S. government's official web portal to all federal, state and local government web resources and services.